createdAt,value
2023-03-21T00:00:42.162Z,101249.40
2023-03-21T00:01:56.445Z,101244.47
2023-03-21T00:02:59.539Z,101246.77
2023-03-21T00:04:03.682Z,101245.41
2023-03-21T00:05:15.526Z,101244.31
2023-03-21T00:06:19.012Z,101242.88
2023-03-21T00:07:21.872Z,101242.55
2023-03-21T00:08:26.846Z,101243.56
2023-03-21T00:09:29.719Z,101241.48
2023-03-21T00:10:40.368Z,101240.30
2023-03-21T00:11:55.997Z,101237.56
2023-03-21T00:12:58.822Z,101239.10
2023-03-21T00:14:02.547Z,101235.90
2023-03-21T00:15:10.269Z,101237.10
2023-03-21T00:16:20.319Z,101234.48
2023-03-21T00:17:32.689Z,101231.38
2023-03-21T00:18:36.864Z,101234.70
2023-03-21T00:19:41.368Z,101233.64
2023-03-21T00:20:47.465Z,101234.09
2023-03-21T00:22:06.378Z,101233.30
2023-03-21T00:23:10.765Z,101232.58
2023-03-21T00:24:13.759Z,101228.73
2023-03-21T00:25:16.840Z,101228.13
2023-03-21T00:26:19.708Z,101227.73
2023-03-21T00:27:44.840Z,101227.36
2023-03-21T00:28:45.933Z,101219.78
2023-03-21T00:29:49.984Z,101220.59
2023-03-21T00:30:59.366Z,101223.56
2023-03-21T00:32:02.203Z,101222.39
2023-03-21T00:33:19.604Z,101219.23
2023-03-21T00:34:36.466Z,101218.21
2023-03-21T00:36:05.831Z,101220.32
2023-03-21T00:37:13.238Z,101214.67
2023-03-21T00:38:22.515Z,101214.66
2023-03-21T00:39:26.192Z,101217.40
2023-03-21T00:40:35.081Z,101214.99
2023-03-21T00:41:43.347Z,101216.29
2023-03-21T00:42:47.051Z,101214.11
2023-03-21T00:43:50.154Z,101216.24
2023-03-21T00:44:52.984Z,101215.24
2023-03-21T00:45:58.332Z,101214.55
2023-03-21T00:47:07.369Z,101216.11
2023-03-21T00:48:11.388Z,101221.17
2023-03-21T00:49:14.506Z,101221.63
2023-03-21T00:50:18.176Z,101224.99
2023-03-21T00:51:26.593Z,101226.31
2023-03-21T00:52:40.160Z,101225.41
2023-03-21T00:53:43.391Z,101227.92
2023-03-21T00:54:46.420Z,101224.16
2023-03-21T00:55:49.806Z,101225.07
2023-03-21T00:56:53.173Z,101227.09
2023-03-21T00:58:01.903Z,101226.77
2023-03-21T00:59:05.426Z,101228.29
2023-03-21T01:00:10.712Z,101230.14
2023-03-21T01:01:13.868Z,101229.95
2023-03-21T01:02:23.229Z,101229.55
2023-03-21T01:03:26.731Z,101230.52
2023-03-21T01:04:29.663Z,101229.05
2023-03-21T01:05:54.339Z,101227.11
2023-03-21T01:06:57.366Z,101227.40
2023-03-21T01:08:01.829Z,101223.50
2023-03-21T01:09:08.045Z,101222.50
2023-03-21T01:10:12.460Z,101226.24
2023-03-21T01:11:19.870Z,101222.47
2023-03-21T01:12:22.740Z,101224.84
2023-03-21T01:13:25.892Z,101228.25
2023-03-21T01:14:29.265Z,101221.31
2023-03-21T01:15:32.226Z,101225.16
2023-03-21T01:16:36.128Z,101225.13
2023-03-21T01:17:39.083Z,101224.11
2023-03-21T01:18:42.385Z,101225.29
2023-03-21T01:19:51.976Z,101222.47
2023-03-21T01:20:58.073Z,101223.22
2023-03-21T01:22:01.490Z,101222.31
2023-03-21T01:23:04.977Z,101220.82
2023-03-21T01:24:08.521Z,101219.08
2023-03-21T01:25:22.041Z,101222.30
2023-03-21T01:26:25.915Z,101219.56
2023-03-21T01:27:28.931Z,101217.86
2023-03-21T01:28:32.682Z,101219.42
2023-03-21T01:29:35.578Z,101215.32
2023-03-21T01:32:09.390Z,101220.46
2023-03-21T01:33:14.376Z,101217.17
2023-03-21T01:34:17.306Z,101217.07
2023-03-21T01:35:20.424Z,101217.41
2023-03-21T01:36:25.855Z,101219.77
2023-03-21T01:37:33.947Z,101215.98
2023-03-21T01:38:37.137Z,101213.87
2023-03-21T01:39:40.457Z,101214.09
2023-03-21T01:40:45.902Z,101214.97
2023-03-21T01:41:58.053Z,101219.12
2023-03-21T01:43:04.545Z,101216.41
2023-03-21T01:44:07.802Z,101214.90
2023-03-21T01:45:52.528Z,101217.20
2023-03-21T01:47:10.902Z,101220.15
2023-03-21T01:48:24.777Z,101227.61
2023-03-21T01:49:38.793Z,101227.29
2023-03-21T01:50:47.831Z,101226.36
2023-03-21T01:52:14.002Z,101224.27
2023-03-21T01:53:30.014Z,101221.14
2023-03-21T01:54:38.201Z,101220.36
2023-03-21T01:55:41.935Z,101221.64
2023-03-21T01:56:57.763Z,101224.18
2023-03-21T01:58:06.754Z,101221.63
2023-03-21T01:59:28.457Z,101226.95
2023-03-21T02:00:53.365Z,101227.59
2023-03-21T02:02:07.484Z,101230.94
2023-03-21T02:03:26.220Z,101230.89
2023-03-21T02:04:50.885Z,101232.46
2023-03-21T02:06:01.305Z,101234.83
2023-03-21T02:07:14.590Z,101234.62
2023-03-21T02:08:33.351Z,101233.92
2023-03-21T02:09:47.337Z,101239.00
2023-03-21T02:10:53.103Z,101237.67
2023-03-21T02:12:11.132Z,101232.58
2023-03-21T02:13:15.937Z,101234.19
2023-03-21T02:14:28.946Z,101233.57
2023-03-21T02:15:40.893Z,101226.98
2023-03-21T02:17:04.503Z,101234.76
2023-03-21T02:18:32.633Z,101234.29
2023-03-21T02:19:53.364Z,101236.70
2023-03-21T02:21:01.697Z,101235.30
2023-03-21T02:22:25.906Z,101237.46
2023-03-21T02:24:08.053Z,101234.59
2023-03-21T02:25:45.581Z,101238.92
2023-03-21T02:27:04.532Z,101237.43
2023-03-21T02:28:26.020Z,101243.23
2023-03-21T02:29:56.859Z,101244.80
2023-03-21T02:31:19.866Z,101241.50
2023-03-21T02:32:46.824Z,101244.59
2023-03-21T02:34:02.218Z,101242.47
2023-03-21T02:35:23.521Z,101243.45
2023-03-21T02:36:38.213Z,101245.55
2023-03-21T02:38:07.123Z,101244.06
2023-03-21T02:39:15.821Z,101244.73
2023-03-21T02:40:36.004Z,101245.51
2023-03-21T02:41:52.162Z,101248.05
2023-03-21T02:43:23.278Z,101246.37
2023-03-21T02:44:35.665Z,101244.73
2023-03-21T02:45:53.587Z,101241.60
2023-03-21T02:47:07.090Z,101243.15
2023-03-21T02:48:27.887Z,101238.04
2023-03-21T02:49:51.592Z,101238.84
2023-03-21T02:50:59.813Z,101245.14
2023-03-21T02:52:15.652Z,101237.39
2023-03-21T02:53:25.570Z,101237.65
2023-03-21T02:54:46.934Z,101236.33
2023-03-21T02:55:53.076Z,101239.16
2023-03-21T02:56:59.357Z,101235.80
2023-03-21T02:58:12.479Z,101240.25
2023-03-21T02:59:22.691Z,101242.85
2023-03-21T03:00:31.406Z,101243.67
2023-03-21T03:01:34.581Z,101246.47
2023-03-21T03:02:40.088Z,101246.38
2023-03-21T03:03:44.070Z,101244.44
2023-03-21T03:04:47.971Z,101244.55
2023-03-21T03:05:55.877Z,101248.70
2023-03-21T03:06:59.967Z,101248.95
2023-03-21T03:08:35.766Z,101251.23
2023-03-21T03:10:12.414Z,101253.88
2023-03-21T03:11:23.651Z,101252.20
2023-03-21T03:12:40.456Z,101258.15
2023-03-21T03:14:21.194Z,101258.45
2023-03-21T03:15:45.800Z,101259.39
2023-03-21T03:17:24.250Z,101259.62
2023-03-21T03:18:31.138Z,101259.52
2023-03-21T03:19:49.713Z,101261.19
2023-03-21T03:21:14.154Z,101254.23
2023-03-21T03:22:29.320Z,101252.55
2023-03-21T03:23:54.568Z,101257.33
2023-03-21T03:25:19.866Z,101254.27
2023-03-21T03:26:37.123Z,101251.86
2023-03-21T03:27:44.416Z,101255.30
2023-03-21T03:28:53.352Z,101255.55
2023-03-21T03:30:00.872Z,101259.30
2023-03-21T03:31:09.556Z,101261.27
2023-03-21T03:32:44.856Z,101264.59
2023-03-21T03:33:52.897Z,101271.25
2023-03-21T03:34:57.595Z,101267.06
2023-03-21T03:36:07.120Z,101268.16
2023-03-21T03:37:16.992Z,101271.20
2023-03-21T03:38:22.462Z,101273.49
2023-03-21T03:39:35.928Z,101275.73
2023-03-21T03:40:49.040Z,101273.09
2023-03-21T03:42:28.043Z,101272.52
2023-03-21T03:43:50.963Z,101268.73
2023-03-21T03:44:55.287Z,101266.98
2023-03-21T03:46:05.410Z,101269.45
2023-03-21T03:47:31.694Z,101268.44
2023-03-21T03:48:58.918Z,101273.05
2023-03-21T03:50:04.840Z,101274.98
2023-03-21T03:51:12.682Z,101271.02
2023-03-21T03:52:59.816Z,101271.45
2023-03-21T03:54:11.207Z,101270.45
2023-03-21T03:55:17.692Z,101272.09
2023-03-21T03:56:22.402Z,101271.58
2023-03-21T03:57:27.242Z,101269.29
2023-03-21T03:58:44.569Z,101267.23
2023-03-21T03:59:49.806Z,101265.96
2023-03-21T04:01:09.056Z,101271.92
2023-03-21T04:02:13.235Z,101271.08
2023-03-21T04:03:16.393Z,101271.65
2023-03-21T04:04:22.891Z,101274.52
2023-03-21T04:05:27.519Z,101278.53
2023-03-21T04:06:30.486Z,101274.92
2023-03-21T04:07:33.876Z,101271.60
2023-03-21T04:08:37.751Z,101272.88
2023-03-21T04:09:44.933Z,101274.84
2023-03-21T04:10:51.776Z,101276.57
2023-03-21T04:11:55.281Z,101278.55
2023-03-21T04:12:58.178Z,101279.36
2023-03-21T04:14:06.709Z,101279.40
2023-03-21T04:15:11.289Z,101282.19
2023-03-21T04:16:17.313Z,101282.23
2023-03-21T04:17:20.144Z,101282.16
2023-03-21T04:18:24.612Z,101283.48
2023-03-21T04:19:27.495Z,101282.95
2023-03-21T04:20:37.013Z,101284.48
2023-03-21T04:21:40.511Z,101282.76
2023-03-21T04:22:43.785Z,101284.26
2023-03-21T04:23:47.015Z,101282.73
2023-03-21T04:24:50.477Z,101283.49
2023-03-21T04:25:56.926Z,101290.80
2023-03-21T04:27:08.982Z,101295.90
2023-03-21T04:28:16.977Z,101294.90
2023-03-21T04:29:24.418Z,101296.73
2023-03-21T04:31:01.228Z,101295.67
2023-03-21T04:32:16.523Z,101302.80
2023-03-21T04:33:25.860Z,101301.15
2023-03-21T04:34:34.240Z,101299.58
2023-03-21T04:35:38.981Z,101300.73
2023-03-21T04:36:49.663Z,101297.95
2023-03-21T04:37:52.715Z,101298.75
2023-03-21T04:39:01.554Z,101300.15
2023-03-21T04:40:07.484Z,101305.62
2023-03-21T04:41:10.558Z,101302.20
2023-03-21T04:42:14.665Z,101302.80
2023-03-21T04:43:17.793Z,101305.33
2023-03-21T04:44:21.014Z,101306.54
2023-03-21T04:45:24.016Z,101310.04
2023-03-21T04:46:26.921Z,101309.17
2023-03-21T04:47:30.543Z,101308.91
2023-03-21T04:48:33.496Z,101309.33
2023-03-21T04:49:36.931Z,101308.98
2023-03-21T04:50:39.759Z,101307.55
2023-03-21T04:51:44.088Z,101309.48
2023-03-21T04:52:48.793Z,101309.33
2023-03-21T04:53:52.640Z,101310.52
2023-03-21T04:54:56.231Z,101310.38
2023-03-21T04:55:59.191Z,101312.91
2023-03-21T04:57:02.075Z,101317.04
2023-03-21T04:58:04.980Z,101316.77
2023-03-21T04:59:12.288Z,101313.64
2023-03-21T05:00:15.648Z,101313.73
2023-03-21T05:01:20.927Z,101313.65
2023-03-21T05:02:24.042Z,101315.69
2023-03-21T05:03:28.746Z,101317.48
2023-03-21T05:04:31.660Z,101319.27
2023-03-21T05:05:37.277Z,101319.64
2023-03-21T05:06:42.659Z,101320.55
2023-03-21T05:07:45.875Z,101323.14
2023-03-21T05:08:48.750Z,101321.90
2023-03-21T05:09:51.909Z,101322.83
2023-03-21T05:10:54.809Z,101324.51
2023-03-21T05:12:03.890Z,101323.48
2023-03-21T05:13:07.628Z,101324.38
2023-03-21T05:14:14.097Z,101325.48
2023-03-21T05:15:17.085Z,101326.71
2023-03-21T05:16:22.405Z,101330.12
2023-03-21T05:17:28.476Z,101329.22
2023-03-21T05:18:34.886Z,101329.87
2023-03-21T05:19:42.770Z,101331.34
2023-03-21T05:20:47.279Z,101330.48
2023-03-21T05:21:50.532Z,101329.81
2023-03-21T05:22:57.457Z,101329.45
2023-03-21T05:24:03.719Z,101331.33
2023-03-21T05:25:11.825Z,101328.23
2023-03-21T05:26:33.465Z,101330.88
2023-03-21T05:27:54.026Z,101330.33
2023-03-21T05:28:59.674Z,101330.60
2023-03-21T05:30:09.565Z,101332.80
2023-03-21T05:31:15.967Z,101333.59
2023-03-21T05:32:19.232Z,101332.86
2023-03-21T05:33:22.277Z,101332.73
2023-03-21T05:34:27.301Z,101333.23
2023-03-21T05:35:31.001Z,101335.86
2023-03-21T05:36:36.270Z,101339.15
2023-03-21T05:37:40.867Z,101339.23
2023-03-21T05:38:46.213Z,101336.27
2023-03-21T05:39:50.015Z,101341.25
2023-03-21T05:40:58.574Z,101341.66
2023-03-21T05:42:01.521Z,101343.55
2023-03-21T05:43:04.716Z,101349.77
2023-03-21T05:44:07.640Z,101348.00
2023-03-21T05:45:11.659Z,101345.96
2023-03-21T05:46:14.826Z,101344.35
2023-03-21T05:47:18.806Z,101343.17
2023-03-21T05:48:23.080Z,101344.39
2023-03-21T05:49:49.976Z,101344.42
2023-03-21T05:50:54.457Z,101343.86
2023-03-21T05:51:59.674Z,101345.67
2023-03-21T05:53:02.636Z,101350.80
2023-03-21T05:54:06.563Z,101352.00
2023-03-21T05:55:10.342Z,101349.76
2023-03-21T05:56:13.467Z,101352.13
2023-03-21T05:57:22.241Z,101355.54
2023-03-21T05:58:45.424Z,101353.70
2023-03-21T05:59:48.658Z,101357.40
2023-03-21T06:00:53.087Z,101356.17
2023-03-21T06:02:01.222Z,101356.59
2023-03-21T06:03:04.559Z,101353.65
2023-03-21T06:04:23.599Z,101356.65
2023-03-21T06:05:26.702Z,101358.29
2023-03-21T06:06:30.253Z,101361.73
2023-03-21T06:07:37.178Z,101360.80
2023-03-21T06:08:40.673Z,101361.21
2023-03-21T06:09:43.541Z,101362.74
2023-03-21T06:10:46.578Z,101364.27
2023-03-21T06:11:53.106Z,101367.37
2023-03-21T06:13:16.037Z,101369.02
2023-03-21T06:14:20.576Z,101367.09
2023-03-21T06:15:37.456Z,101369.14
2023-03-21T06:16:49.194Z,101371.38
2023-03-21T06:17:52.356Z,101369.61
2023-03-21T06:18:56.218Z,101370.48
2023-03-21T06:20:12.167Z,101374.19
2023-03-21T06:21:24.203Z,101374.92
2023-03-21T06:22:28.570Z,101375.65
2023-03-21T06:23:32.575Z,101377.96
2023-03-21T06:24:35.825Z,101377.27
2023-03-21T06:25:38.949Z,101378.17
2023-03-21T06:26:42.963Z,101377.96
2023-03-21T06:27:46.165Z,101378.94
2023-03-21T06:28:50.454Z,101384.83
2023-03-21T06:29:53.488Z,101381.29
2023-03-21T06:30:56.919Z,101387.95
2023-03-21T06:32:01.903Z,101389.11
2023-03-21T06:33:04.963Z,101392.42
2023-03-21T06:34:08.017Z,101393.36
2023-03-21T06:35:10.869Z,101391.30
2023-03-21T06:36:14.144Z,101394.34
2023-03-21T06:37:19.430Z,101394.94
2023-03-21T06:38:23.159Z,101397.46
2023-03-21T06:39:26.430Z,101397.96
2023-03-21T06:40:29.297Z,101395.67
2023-03-21T06:41:32.184Z,101400.66
2023-03-21T06:42:38.434Z,101400.92
2023-03-21T06:43:48.493Z,101402.16
2023-03-21T06:44:51.643Z,101399.34
2023-03-21T06:45:54.476Z,101404.23
2023-03-21T06:46:57.411Z,101401.61
2023-03-21T06:48:00.355Z,101411.22
2023-03-21T06:49:08.946Z,101406.75
2023-03-21T06:50:12.115Z,101407.48
2023-03-21T06:51:17.676Z,101410.52
2023-03-21T06:52:34.794Z,101405.98
2023-03-21T06:53:38.270Z,101409.02
2023-03-21T06:55:01.450Z,101406.97
2023-03-21T06:56:04.620Z,101411.75
2023-03-21T06:57:07.748Z,101408.49
2023-03-21T06:58:11.202Z,101410.52
2023-03-21T06:59:14.154Z,101412.38
2023-03-21T07:00:26.911Z,101408.51
2023-03-21T07:01:30.755Z,101414.55
2023-03-21T07:02:39.852Z,101415.12
2023-03-21T07:03:49.193Z,101417.92
2023-03-21T07:04:53.833Z,101417.59
2023-03-21T07:05:59.130Z,101423.17
2023-03-21T07:07:02.186Z,101426.91
2023-03-21T07:08:06.239Z,101426.86
2023-03-21T07:09:09.430Z,101424.33
2023-03-21T07:10:13.719Z,101430.57
2023-03-21T07:11:22.434Z,101430.13
2023-03-21T07:12:25.752Z,101429.27
2023-03-21T07:13:52.341Z,101429.84
2023-03-21T07:14:55.424Z,101431.88
2023-03-21T07:15:59.691Z,101431.98
2023-03-21T07:17:02.612Z,101434.24
2023-03-21T07:18:07.066Z,101432.19
2023-03-21T07:19:09.997Z,101435.50
2023-03-21T07:20:13.353Z,101435.23
2023-03-21T07:21:16.639Z,101437.23
2023-03-21T07:22:20.516Z,101429.71
2023-03-21T07:23:25.777Z,101434.79
2023-03-21T07:24:28.852Z,101438.81
2023-03-21T07:25:31.977Z,101434.67
2023-03-21T07:26:35.323Z,101440.22
2023-03-21T07:27:41.054Z,101439.21
2023-03-21T07:28:45.614Z,101439.48
2023-03-21T07:29:50.495Z,101440.77
2023-03-21T07:31:02.681Z,101441.47
2023-03-21T07:32:05.587Z,101438.63
2023-03-21T07:33:08.884Z,101439.77
2023-03-21T07:34:15.985Z,101435.15
2023-03-21T07:35:19.233Z,101439.77
2023-03-21T07:36:22.268Z,101441.34
2023-03-21T07:37:25.452Z,101440.84
2023-03-21T07:38:30.916Z,101440.93
2023-03-21T07:39:35.014Z,101439.21
2023-03-21T07:40:38.656Z,101440.73
2023-03-21T07:41:41.936Z,101438.57
2023-03-21T07:42:58.358Z,101440.70
2023-03-21T07:45:11.292Z,101437.06
2023-03-21T07:46:14.385Z,101436.94
2023-03-21T07:47:17.237Z,101437.38
2023-03-21T07:48:23.667Z,101436.11
2023-03-21T07:49:26.745Z,101437.36
2023-03-21T07:50:29.885Z,101437.35
2023-03-21T07:51:35.330Z,101441.77
2023-03-21T07:52:38.627Z,101441.16
2023-03-21T07:53:42.022Z,101442.23
2023-03-21T07:54:45.132Z,101446.73
2023-03-21T07:55:52.733Z,101446.79
2023-03-21T07:56:57.155Z,101448.92
2023-03-21T07:58:00.219Z,101446.77
2023-03-21T07:59:03.119Z,101444.02
2023-03-21T08:00:07.289Z,101447.50
2023-03-21T08:01:15.745Z,101449.32
2023-03-21T08:02:19.048Z,101448.13
2023-03-21T08:03:24.043Z,101449.32
2023-03-21T08:04:27.983Z,101450.54
2023-03-21T08:05:35.681Z,101450.95
2023-03-21T08:06:38.745Z,101453.36
2023-03-21T08:07:41.602Z,101449.18
2023-03-21T08:08:44.487Z,101452.37
2023-03-21T08:09:47.515Z,101451.64
2023-03-21T08:10:50.382Z,101450.67
2023-03-21T08:11:53.440Z,101456.22
2023-03-21T08:12:56.861Z,101458.06
2023-03-21T08:14:00.883Z,101461.65
2023-03-21T08:15:03.994Z,101463.44
2023-03-21T08:16:08.405Z,101465.61
2023-03-21T08:17:11.278Z,101467.12
2023-03-21T08:18:14.193Z,101465.55
2023-03-21T08:19:20.643Z,101464.88
2023-03-21T08:20:23.651Z,101467.11
2023-03-21T08:21:27.726Z,101467.90
2023-03-21T08:22:30.728Z,101469.56
2023-03-21T08:23:33.592Z,101467.17
2023-03-21T08:24:36.460Z,101468.67
2023-03-21T08:25:39.739Z,101468.77
2023-03-21T08:26:44.575Z,101468.63
2023-03-21T08:27:48.357Z,101474.38
2023-03-21T08:28:51.518Z,101472.34
2023-03-21T08:29:54.510Z,101476.41
2023-03-21T08:30:57.541Z,101476.01
2023-03-21T08:32:00.693Z,101477.48
2023-03-21T08:33:04.499Z,101479.91
2023-03-21T08:34:07.994Z,101477.11
2023-03-21T08:35:13.676Z,101480.92
2023-03-21T08:36:16.691Z,101481.17
2023-03-21T08:37:20.052Z,101480.77
2023-03-21T08:38:23.043Z,101484.20
2023-03-21T08:39:26.107Z,101486.30
2023-03-21T08:40:29.514Z,101486.39
2023-03-21T08:41:33.841Z,101491.52
2023-03-21T08:42:38.024Z,101489.21
2023-03-21T08:43:41.236Z,101490.70
2023-03-21T08:44:44.510Z,101492.09
2023-03-21T08:45:47.563Z,101493.64
2023-03-21T08:46:50.486Z,101493.35
2023-03-21T08:47:53.644Z,101495.92
2023-03-21T08:48:56.841Z,101493.83
2023-03-21T08:50:00.364Z,101500.40
2023-03-21T08:51:03.220Z,101499.86
2023-03-21T08:52:06.378Z,101500.52
2023-03-21T08:53:09.523Z,101499.45
2023-03-21T08:54:20.919Z,101498.80
2023-03-21T08:55:24.271Z,101499.79
2023-03-21T08:56:27.113Z,101504.81
2023-03-21T08:57:30.556Z,101501.30
2023-03-21T08:58:33.754Z,101504.15
2023-03-21T08:59:37.354Z,101505.58
2023-03-21T09:00:40.561Z,101501.55
2023-03-21T09:01:43.665Z,101503.98
2023-03-21T09:02:49.299Z,101504.15
2023-03-21T09:03:52.270Z,101506.88
2023-03-21T09:04:59.187Z,101503.86
2023-03-21T09:06:03.147Z,101508.86
2023-03-21T09:07:06.497Z,101502.51
2023-03-21T09:08:09.449Z,101502.27
2023-03-21T09:09:12.992Z,101501.54
2023-03-21T09:10:21.915Z,101503.63
2023-03-21T09:11:26.025Z,101500.45
2023-03-21T09:12:29.037Z,101499.26
2023-03-21T09:13:31.802Z,101502.04
2023-03-21T09:14:35.454Z,101506.25
2023-03-21T09:15:39.109Z,101506.91
2023-03-21T09:16:42.285Z,101504.27
2023-03-21T09:17:50.313Z,101508.23
2023-03-21T09:18:55.765Z,101507.69
2023-03-21T09:20:00.678Z,101507.61
2023-03-21T09:21:12.779Z,101510.48
2023-03-21T09:22:17.329Z,101513.13
2023-03-21T09:23:20.344Z,101517.11
2023-03-21T09:24:23.259Z,101516.88
2023-03-21T09:25:32.531Z,101513.84
2023-03-21T09:26:35.627Z,101515.77
2023-03-21T09:27:38.722Z,101516.23
2023-03-21T09:28:42.891Z,101520.58
2023-03-21T09:29:46.117Z,101513.56
2023-03-21T09:30:49.519Z,101515.66
2023-03-21T09:31:54.018Z,101507.34
2023-03-21T09:32:57.049Z,101515.23
2023-03-21T09:34:00.416Z,101512.52
2023-03-21T09:35:06.062Z,101519.50
2023-03-21T09:36:14.455Z,101511.13
2023-03-21T09:37:17.662Z,101509.95
2023-03-21T09:38:20.836Z,101514.52
2023-03-21T09:39:24.220Z,101513.84
2023-03-21T09:40:52.780Z,101512.14
2023-03-21T09:42:15.347Z,101511.00
2023-03-21T09:43:37.422Z,101510.75
2023-03-21T09:44:54.251Z,101510.45
2023-03-21T09:46:09.191Z,101509.71
2023-03-21T09:47:21.805Z,101508.88
2023-03-21T09:48:39.591Z,101508.74
2023-03-21T09:50:12.990Z,101508.95
2023-03-21T09:51:22.087Z,101507.13
2023-03-21T09:52:37.890Z,101505.46
2023-03-21T09:53:43.303Z,101506.70
2023-03-21T09:54:46.204Z,101505.85
2023-03-21T09:57:06.486Z,101509.54
2023-03-21T10:00:25.844Z,101512.66
2023-03-21T10:01:33.190Z,101509.35
2023-03-21T10:02:39.371Z,101509.20
2023-03-21T10:03:44.177Z,101509.32
2023-03-21T10:04:47.301Z,101504.78
2023-03-21T10:05:52.850Z,101500.77
2023-03-21T10:07:02.613Z,101501.48
2023-03-21T10:08:17.530Z,101504.08
2023-03-21T10:09:24.418Z,101503.11
2023-03-21T10:10:32.421Z,101501.75
2023-03-21T10:11:50.437Z,101500.52
2023-03-21T10:12:55.827Z,101506.69
2023-03-21T10:14:04.952Z,101507.24
2023-03-21T10:15:14.643Z,101510.66
2023-03-21T10:16:32.426Z,101510.34
2023-03-21T10:17:43.183Z,101507.55
2023-03-21T10:18:46.882Z,101513.48
2023-03-21T10:19:57.239Z,101514.56
2023-03-21T10:21:02.024Z,101510.27
2023-03-21T10:22:04.900Z,101511.23
2023-03-21T10:23:16.701Z,101513.48
2023-03-21T10:24:26.221Z,101517.17
2023-03-21T10:25:31.870Z,101515.56
2023-03-21T10:26:35.273Z,101518.66
2023-03-21T10:27:38.185Z,101518.41
2023-03-21T10:28:52.723Z,101520.80
2023-03-21T10:29:57.582Z,101523.15
2023-03-21T10:31:04.559Z,101521.67
2023-03-21T10:32:11.987Z,101520.52
2023-03-21T10:33:20.573Z,101517.36
2023-03-21T10:34:42.605Z,101519.09
2023-03-21T10:35:52.349Z,101522.39
2023-03-21T10:36:55.389Z,101525.11
2023-03-21T10:37:58.635Z,101524.98
2023-03-21T10:39:02.033Z,101526.02
2023-03-21T10:40:07.985Z,101527.58
2023-03-21T10:41:13.863Z,101526.08
2023-03-21T10:42:25.307Z,101525.48
2023-03-21T10:43:28.104Z,101529.24
2023-03-21T10:44:34.862Z,101528.02
2023-03-21T10:45:38.614Z,101527.09
2023-03-21T10:47:19.668Z,101525.16
2023-03-21T10:48:24.655Z,101527.69
2023-03-21T10:49:35.879Z,101527.36
2023-03-21T10:50:47.715Z,101524.41
2023-03-21T10:51:55.701Z,101524.63
2023-03-21T10:53:00.929Z,101524.64
2023-03-21T10:54:12.111Z,101521.10
2023-03-21T10:55:28.991Z,101521.06
2023-03-21T10:56:38.430Z,101524.21
2023-03-21T10:57:41.346Z,101523.23
2023-03-21T10:58:46.953Z,101521.44
2023-03-21T10:59:59.933Z,101523.85
2023-03-21T11:01:10.137Z,101522.02
2023-03-21T11:02:40.940Z,101514.73
2023-03-21T11:03:47.015Z,101512.29
2023-03-21T11:04:50.438Z,101516.89
2023-03-21T11:05:57.401Z,101511.71
2023-03-21T11:07:09.221Z,101513.28
2023-03-21T11:08:18.079Z,101514.45
2023-03-21T11:09:25.354Z,101511.95
2023-03-21T11:10:48.321Z,101512.64
2023-03-21T11:12:03.739Z,101516.17
2023-03-21T11:13:20.437Z,101511.86
2023-03-21T11:14:38.622Z,101514.95
2023-03-21T11:15:54.209Z,101513.83
2023-03-21T11:16:57.068Z,101512.27
2023-03-21T11:18:13.073Z,101513.84
2023-03-21T11:19:27.692Z,101511.09
2023-03-21T11:20:31.757Z,101515.20
2023-03-21T11:21:38.628Z,101517.38
2023-03-21T11:22:44.971Z,101518.02
2023-03-21T11:23:52.781Z,101519.37
2023-03-21T11:25:01.867Z,101521.05
2023-03-21T11:26:10.433Z,101521.84
2023-03-21T11:27:13.375Z,101519.19
2023-03-21T11:28:19.815Z,101519.60
2023-03-21T11:29:39.014Z,101519.88
2023-03-21T11:30:58.314Z,101519.61
2023-03-21T11:32:10.526Z,101519.25
2023-03-21T11:33:13.397Z,101517.06
2023-03-21T11:34:31.013Z,101519.02
2023-03-21T11:35:37.455Z,101520.66
2023-03-21T11:36:40.896Z,101519.23
2023-03-21T11:37:47.059Z,101521.69
2023-03-21T11:38:52.925Z,101519.73
2023-03-21T11:40:05.567Z,101521.96
2023-03-21T11:41:08.909Z,101523.72
2023-03-21T11:42:27.224Z,101523.48
2023-03-21T11:43:39.144Z,101521.93
2023-03-21T11:44:44.435Z,101519.61
2023-03-21T11:46:01.431Z,101520.02
2023-03-21T11:47:04.577Z,101521.15
2023-03-21T11:48:16.473Z,101519.17
2023-03-21T11:49:21.175Z,101520.39
2023-03-21T11:50:38.477Z,101519.06
2023-03-21T11:51:50.847Z,101519.35
2023-03-21T11:53:12.598Z,101521.23
2023-03-21T11:54:53.431Z,101517.46
2023-03-21T11:56:02.267Z,101514.26
2023-03-21T11:57:46.455Z,101513.41
2023-03-21T11:58:55.955Z,101512.66
2023-03-21T12:00:18.255Z,101509.34
2023-03-21T12:01:36.589Z,101511.63
2023-03-21T12:03:20.244Z,101511.16
2023-03-21T12:04:49.758Z,101510.35
2023-03-21T12:05:56.581Z,101512.59
2023-03-21T12:07:18.362Z,101510.06
2023-03-21T12:08:43.233Z,101509.45
2023-03-21T12:10:08.380Z,101510.69
2023-03-21T12:11:20.650Z,101511.63
2023-03-21T12:12:59.016Z,101507.27
2023-03-21T12:14:16.005Z,101506.58
2023-03-21T12:15:37.539Z,101504.77
2023-03-21T12:17:02.392Z,101500.89
2023-03-21T12:18:24.276Z,101503.30
2023-03-21T12:19:33.253Z,101503.34
2023-03-21T12:20:45.277Z,101504.66
2023-03-21T12:21:48.096Z,101503.77
2023-03-21T12:23:17.984Z,101500.44
2023-03-21T12:24:24.841Z,101497.90
2023-03-21T12:25:39.918Z,101494.20
2023-03-21T12:27:16.549Z,101497.11
2023-03-21T12:28:38.513Z,101495.34
2023-03-21T12:29:59.513Z,101494.36
2023-03-21T12:31:08.331Z,101493.02
2023-03-21T12:32:39.047Z,101490.19
2023-03-21T12:34:12.433Z,101487.73
2023-03-21T12:35:34.512Z,101487.05
2023-03-21T12:36:50.144Z,101482.02
2023-03-21T12:38:20.676Z,101485.17
2023-03-21T12:39:33.432Z,101484.58
2023-03-21T12:41:01.932Z,101481.74
2023-03-21T12:42:13.909Z,101481.65
2023-03-21T12:43:21.058Z,101476.21
2023-03-21T12:44:29.175Z,101476.49
2023-03-21T12:45:46.631Z,101477.62
2023-03-21T12:47:01.519Z,101476.70
2023-03-21T12:48:13.714Z,101478.06
2023-03-21T12:49:23.428Z,101476.11
2023-03-21T12:50:29.872Z,101475.49
2023-03-21T12:51:43.044Z,101478.31
2023-03-21T12:52:52.884Z,101477.34
2023-03-21T12:53:55.775Z,101473.16
2023-03-21T12:55:19.604Z,101475.20
2023-03-21T12:56:49.791Z,101472.48
2023-03-21T12:58:06.834Z,101471.59
2023-03-21T12:59:28.363Z,101471.39
2023-03-21T13:00:40.909Z,101473.02
2023-03-21T13:01:48.201Z,101471.41
2023-03-21T13:02:58.587Z,101469.52
2023-03-21T13:04:24.666Z,101470.34
2023-03-21T13:05:39.187Z,101468.13
2023-03-21T13:06:45.580Z,101472.60
2023-03-21T13:07:58.134Z,101471.56
2023-03-21T13:09:10.533Z,101472.03
2023-03-21T13:10:17.524Z,101473.56
2023-03-21T13:11:24.488Z,101469.82
2023-03-21T13:12:49.407Z,101466.85
2023-03-21T13:14:20.865Z,101464.98
2023-03-21T13:15:38.481Z,101465.27
2023-03-21T13:16:47.819Z,101467.23